createdAt,value
2019-05-14T00:00:21.690Z,40.40
2019-05-14T00:05:12.195Z,40.40
2019-05-14T00:10:02.004Z,41.30
2019-05-14T00:14:52.945Z,41.80
2019-05-14T00:19:44.571Z,40.30
2019-05-14T00:24:35.592Z,40.30
2019-05-14T00:29:27.222Z,41.80
2019-05-14T00:34:18.110Z,41.80
2019-05-14T00:39:11.050Z,41.80
2019-05-14T00:44:01.815Z,40.60
2019-05-14T00:48:51.450Z,40.90
2019-05-14T00:53:42.512Z,42.30
2019-05-14T00:58:33.421Z,42.40
2019-05-14T01:03:24.348Z,41.80
2019-05-14T01:08:15.245Z,41.00
2019-05-14T01:13:06.163Z,41.40
2019-05-14T01:17:57.065Z,42.20
2019-05-14T01:22:47.977Z,43.00
2019-05-14T01:27:41.112Z,41.80
2019-05-14T01:32:31.503Z,41.30
2019-05-14T01:37:21.847Z,41.90
2019-05-14T01:42:12.435Z,42.70
2019-05-14T01:47:04.088Z,42.10
2019-05-14T01:51:55.743Z,41.60
2019-05-14T01:56:46.650Z,41.60
2019-05-14T02:01:37.553Z,42.10
2019-05-14T02:06:31.392Z,43.80
2019-05-14T02:11:21.442Z,43.70
2019-05-14T02:16:13.069Z,42.40
2019-05-14T02:21:02.019Z,42.10
2019-05-14T02:25:52.914Z,42.70
2019-05-14T02:30:51.913Z,43.50
2019-05-14T02:35:34.763Z,44.10
2019-05-14T02:40:25.671Z,42.80
2019-05-14T02:45:19.538Z,42.30
2019-05-14T02:50:10.027Z,42.80
2019-05-14T02:54:59.747Z,43.70
2019-05-14T02:59:50.236Z,44.30
2019-05-14T03:04:40.303Z,43.60
2019-05-14T03:09:31.954Z,43.00
2019-05-14T03:14:23.616Z,43.90
2019-05-14T03:19:14.529Z,43.90
2019-05-14T03:24:05.436Z,44.70
2019-05-14T03:28:59.779Z,44.70
2019-05-14T03:33:52.520Z,43.40
2019-05-14T03:38:39.626Z,43.30
2019-05-14T03:43:29.725Z,43.90
2019-05-14T03:48:20.089Z,44.60
2019-05-14T03:53:11.027Z,45.40
2019-05-14T03:58:02.687Z,43.80
2019-05-14T04:02:53.601Z,43.50
2019-05-14T04:07:45.251Z,44.80
2019-05-14T04:12:36.144Z,44.80
2019-05-14T04:17:33.652Z,46.00
2019-05-14T04:22:19.236Z,45.90
2019-05-14T04:27:12.942Z,43.90
2019-05-14T04:32:00.662Z,43.40
2019-05-14T04:36:51.638Z,44.50
2019-05-14T04:41:42.537Z,45.10
2019-05-14T04:46:33.437Z,45.50
2019-05-14T04:51:24.335Z,45.70
2019-05-14T04:56:15.240Z,44.20
2019-05-14T05:01:09.910Z,44.50
2019-05-14T05:05:58.911Z,44.40
2019-05-14T05:10:49.720Z,45.10
2019-05-14T05:15:40.485Z,46.00
2019-05-14T05:20:31.417Z,46.00
2019-05-14T05:25:22.349Z,44.00
2019-05-14T05:30:13.273Z,44.00
2019-05-14T05:35:04.291Z,45.00
2019-05-14T05:39:55.202Z,46.30
2019-05-14T05:44:48.161Z,47.20
2019-05-14T05:49:38.199Z,47.50
2019-05-14T05:54:29.179Z,45.60
2019-05-14T05:59:19.166Z,46.20
2019-05-14T06:04:09.882Z,47.50
2019-05-14T06:09:00.795Z,47.70
2019-05-14T06:13:51.696Z,49.80
2019-05-14T06:18:42.609Z,50.20
2019-05-14T06:23:33.522Z,48.30
2019-05-14T06:28:27.999Z,48.40
2019-05-14T06:33:15.367Z,49.90
2019-05-14T06:38:08.913Z,50.70
2019-05-14T06:42:59.145Z,50.70
2019-05-14T06:47:48.939Z,50.20
2019-05-14T06:52:39.840Z,48.80
2019-05-14T06:57:31.548Z,49.70
2019-05-14T07:02:22.504Z,49.60
2019-05-14T07:07:13.427Z,50.30
2019-05-14T07:12:04.332Z,51.30
2019-05-14T07:16:58.588Z,48.70
2019-05-14T07:21:49.231Z,48.70
2019-05-14T07:26:38.883Z,48.80
2019-05-14T07:31:29.244Z,49.10
2019-05-14T07:36:19.819Z,49.50
2019-05-14T07:41:10.729Z,49.90
2019-05-14T07:46:01.716Z,48.60
2019-05-14T07:50:52.635Z,47.70
2019-05-14T07:55:43.531Z,48.30
2019-05-14T08:00:35.194Z,48.90
2019-05-14T08:05:28.620Z,48.80
2019-05-14T08:10:18.583Z,48.80
2019-05-14T08:15:15.255Z,47.10
2019-05-14T08:19:58.975Z,46.70
2019-05-14T08:24:49.884Z,46.80
2019-05-14T08:29:40.780Z,47.30
2019-05-14T08:34:32.456Z,47.40
2019-05-14T08:39:23.357Z,47.40
2019-05-14T08:44:14.269Z,45.80
2019-05-14T08:49:05.173Z,45.70
2019-05-14T08:53:59.019Z,46.50
2019-05-14T08:58:49.465Z,46.50
2019-05-14T09:03:39.366Z,46.60
2019-05-14T09:08:30.381Z,45.30
2019-05-14T09:13:22.043Z,45.50
2019-05-14T09:18:12.941Z,45.40
2019-05-14T09:23:04.670Z,46.10
2019-05-14T09:27:58.585Z,46.30
2019-05-14T09:32:49.370Z,46.20
2019-05-14T09:37:39.625Z,45.90
2019-05-14T09:42:29.111Z,44.80
2019-05-14T09:47:20.004Z,44.80
2019-05-14T09:52:10.909Z,45.50
2019-05-14T09:57:02.551Z,46.20
2019-05-14T10:01:53.475Z,46.20
2019-05-14T10:06:44.376Z,45.50
2019-05-14T10:11:38.204Z,44.20
2019-05-14T10:16:29.028Z,44.20
2019-05-14T10:21:18.942Z,44.60
2019-05-14T10:26:09.250Z,44.80
2019-05-14T10:31:03.563Z,45.20
2019-05-14T10:35:50.656Z,44.70
2019-05-14T10:40:41.558Z,43.80
2019-05-14T10:45:32.471Z,43.10
2019-05-14T10:50:23.368Z,43.30
2019-05-14T10:55:14.269Z,44.20
2019-05-14T11:00:08.795Z,43.50
2019-05-14T11:04:58.713Z,43.40
2019-05-14T11:09:48.597Z,42.70
2019-05-14T11:14:38.995Z,43.00
2019-05-14T11:19:29.636Z,42.40
2019-05-14T11:24:20.551Z,42.20
2019-05-14T11:29:11.455Z,42.70
2019-05-14T11:34:02.382Z,43.00
2019-05-14T11:43:50.995Z,41.10
2019-05-14T11:48:41.897Z,41.80
2019-05-14T11:53:32.803Z,42.50
2019-05-14T11:58:23.727Z,42.90
2019-05-14T12:03:14.631Z,42.10
2019-05-14T12:08:05.532Z,40.50
2019-05-14T12:12:58.439Z,41.30
2019-05-14T12:17:51.197Z,41.90
2019-05-14T12:22:39.435Z,40.80
2019-05-14T12:27:29.991Z,41.70
2019-05-14T12:32:20.905Z,41.40
2019-05-14T12:37:11.819Z,39.00
2019-05-14T12:42:02.721Z,39.10
2019-05-14T12:46:54.367Z,39.70
2019-05-14T12:51:45.283Z,39.60
2019-05-14T12:56:38.811Z,40.50
2019-05-14T13:01:27.222Z,41.10
2019-05-14T13:06:19.090Z,39.50
2019-05-14T13:11:09.850Z,39.00
2019-05-14T13:16:00.095Z,39.50
2019-05-14T13:20:50.993Z,38.80
2019-05-14T13:25:41.914Z,39.40
2019-05-14T13:30:32.810Z,38.50
2019-05-14T13:35:23.713Z,38.00
2019-05-14T13:40:15.361Z,37.40
2019-05-14T13:45:06.306Z,37.50
2019-05-14T13:49:59.259Z,37.30
2019-05-14T13:54:48.154Z,38.10
2019-05-14T13:59:44.050Z,38.30
2019-05-14T14:04:30.761Z,37.00
2019-05-14T14:09:22.411Z,36.50
2019-05-14T14:14:13.342Z,36.50
2019-05-14T14:19:04.283Z,36.40
2019-05-14T14:23:55.207Z,37.40
2019-05-14T14:28:48.980Z,39.30
2019-05-14T14:33:39.154Z,38.10
2019-05-14T14:38:29.376Z,36.30
2019-05-14T14:43:19.721Z,36.30
2019-05-14T14:48:12.572Z,38.80
2019-05-14T14:53:02.336Z,38.80
2019-05-14T14:57:55.069Z,38.10
2019-05-14T15:02:44.224Z,36.20
2019-05-14T15:07:35.920Z,36.10
2019-05-14T15:12:29.172Z,36.10
2019-05-14T15:17:18.612Z,37.60
2019-05-14T15:22:09.504Z,38.20
2019-05-14T15:27:07.820Z,37.40
2019-05-14T15:31:51.426Z,35.80
2019-05-14T15:36:42.347Z,35.90
2019-05-14T15:41:33.259Z,36.10
2019-05-14T15:46:24.162Z,36.80
2019-05-14T15:51:15.369Z,37.50
2019-05-14T15:56:07.981Z,37.10
2019-05-14T16:01:00.801Z,36.50
2019-05-14T16:11:10.579Z,35.60
2019-05-14T16:15:57.118Z,36.20
2019-05-14T16:20:49.928Z,36.60
2019-05-14T16:25:39.003Z,36.60
2019-05-14T16:30:29.920Z,36.30
2019-05-14T16:35:21.264Z,35.20
2019-05-14T16:40:11.770Z,34.10
2019-05-14T16:45:02.669Z,34.60
2019-05-14T16:49:53.697Z,35.80
2019-05-14T16:54:44.605Z,36.20
2019-05-14T16:59:35.513Z,36.80
2019-05-14T17:04:26.421Z,35.70
2019-05-14T17:09:18.727Z,35.80
2019-05-14T17:14:08.659Z,36.40
2019-05-14T17:18:59.296Z,35.80
2019-05-14T17:23:50.166Z,37.10
2019-05-14T17:28:41.886Z,36.60
2019-05-14T17:33:32.790Z,36.60
2019-05-14T17:38:23.715Z,35.70
2019-05-14T17:43:14.625Z,35.90
2019-05-14T17:48:05.560Z,35.80
2019-05-14T17:52:59.838Z,37.20
2019-05-14T17:57:56.645Z,38.20
2019-05-14T18:02:39.891Z,36.50
2019-05-14T18:07:30.798Z,36.50
2019-05-14T18:12:21.734Z,37.10
2019-05-14T18:17:14.758Z,37.20
2019-05-14T18:22:03.579Z,37.30
2019-05-14T18:26:54.485Z,38.00
2019-05-14T18:31:45.754Z,38.80
2019-05-14T18:36:39.296Z,37.10
2019-05-14T18:41:29.281Z,37.10
2019-05-14T18:46:19.212Z,37.60
2019-05-14T18:51:09.267Z,38.30
2019-05-14T18:56:16.161Z,39.10
2019-05-14T19:00:51.747Z,39.00
2019-05-14T19:05:42.641Z,38.80
2019-05-14T19:10:33.541Z,38.00
2019-05-14T19:15:25.183Z,38.50
2019-05-14T19:20:19.075Z,38.50
2019-05-14T19:25:08.255Z,38.50
2019-05-14T19:29:59.206Z,39.00
2019-05-14T19:34:49.615Z,39.70
2019-05-14T19:39:40.571Z,38.30
2019-05-14T19:44:31.494Z,38.10
2019-05-14T19:49:22.447Z,38.60
2019-05-14T19:54:13.517Z,39.10
2019-05-14T19:59:04.442Z,39.20
2019-05-14T20:03:55.367Z,40.40
2019-05-14T20:08:48.240Z,41.20
2019-05-14T20:13:39.194Z,38.50
2019-05-14T20:18:29.907Z,38.70
2019-05-14T20:23:20.817Z,38.70
2019-05-14T20:28:12.468Z,40.70
2019-05-14T20:33:03.382Z,40.70
2019-05-14T20:37:54.308Z,41.00
2019-05-14T20:42:45.234Z,41.60
2019-05-14T20:47:36.141Z,40.20
2019-05-14T20:52:28.394Z,39.80
2019-05-14T20:57:24.493Z,40.20
2019-05-14T21:02:08.919Z,40.80
2019-05-14T21:06:59.830Z,41.10
2019-05-14T21:11:50.733Z,41.30
2019-05-14T21:16:41.634Z,41.70
2019-05-14T21:21:33.292Z,40.30
2019-05-14T21:26:24.248Z,40.30
2019-05-14T21:31:15.179Z,41.10
2019-05-14T21:36:06.084Z,40.60
2019-05-14T21:40:58.241Z,41.20
2019-05-14T21:45:48.963Z,41.60
2019-05-14T21:50:39.602Z,42.40
2019-05-14T21:55:30.524Z,42.40
2019-05-14T22:00:26.026Z,40.50
2019-05-14T22:05:18.964Z,40.50
2019-05-14T22:10:08.239Z,41.00
2019-05-14T22:14:59.163Z,41.40
2019-05-14T22:19:50.071Z,41.80
2019-05-14T22:24:40.986Z,42.20
2019-05-14T22:29:31.897Z,42.50
2019-05-14T22:34:22.806Z,42.10
2019-05-14T22:39:13.706Z,41.00
2019-05-14T22:44:05.410Z,41.50
2019-05-14T22:48:58.208Z,41.50
2019-05-14T22:53:49.293Z,41.80
2019-05-14T22:58:38.494Z,42.20
2019-05-14T23:03:29.904Z,43.10
2019-05-14T23:08:20.827Z,43.10
2019-05-14T23:13:11.898Z,42.50
2019-05-14T23:18:02.793Z,41.30
2019-05-14T23:22:54.558Z,41.70
2019-05-14T23:27:47.632Z,41.70
2019-05-14T23:32:38.503Z,42.10
2019-05-14T23:37:29.092Z,43.10
2019-05-14T23:42:19.196Z,43.10
2019-05-14T23:47:10.102Z,43.40
2019-05-14T23:52:01.000Z,43.20
2019-05-14T23:56:51.963Z,41.70
